sensor_id;sensor_type;location;lat;lon;timestamp;pressure;altitude;pressure_sealevel;temperature;humidity
68193;BME280;55012;47.562;18.414;2023-01-31T00:01:20;99533.97;;;2.24;100.00
68193;BME280;55012;47.562;18.414;2023-01-31T00:03:46;99556.44;;;2.18;100.00
68193;BME280;55012;47.562;18.414;2023-01-31T00:06:16;99536.19;;;2.17;100.00
68193;BME280;55012;47.562;18.414;2023-01-31T00:08:42;99555.09;;;2.20;100.00
68193;BME280;55012;47.562;18.414;2023-01-31T00:11:08;99545.44;;;2.24;100.00
68193;BME280;55012;47.562;18.414;2023-01-31T00:13:34;99558.78;;;2.24;100.00
68193;BME280;55012;47.562;18.414;2023-01-31T00:16:00;99556.31;;;2.33;100.00
68193;BME280;55012;47.562;18.414;2023-01-31T00:18:26;99564.31;;;2.33;100.00
68193;BME280;55012;47.562;18.414;2023-01-31T00:20:51;99547.22;;;2.34;100.00
68193;BME280;55012;47.562;18.414;2023-01-31T00:23:17;99540.00;;;2.35;100.00
68193;BME280;55012;47.562;18.414;2023-01-31T00:25:42;99541.09;;;2.34;100.00
68193;BME280;55012;47.562;18.414;2023-01-31T00:28:08;99572.84;;;2.35;100.00
68193;BME280;55012;47.562;18.414;2023-01-31T00:30:33;99562.94;;;2.36;100.00
68193;BME280;55012;47.562;18.414;2023-01-31T00:32:59;99561.34;;;2.35;100.00
68193;BME280;55012;47.562;18.414;2023-01-31T00:35:24;99551.97;;;2.37;100.00
68193;BME280;55012;47.562;18.414;2023-01-31T00:37:50;99571.97;;;2.40;100.00
68193;BME280;55012;47.562;18.414;2023-01-31T00:40:15;99564.78;;;2.40;100.00
68193;BME280;55012;47.562;18.414;2023-01-31T00:42:41;99573.06;;;2.39;100.00
68193;BME280;55012;47.562;18.414;2023-01-31T00:45:08;99568.00;;;2.37;100.00
68193;BME280;55012;47.562;18.414;2023-01-31T00:47:34;99574.94;;;2.38;100.00
68193;BME280;55012;47.562;18.414;2023-01-31T00:49:59;99571.47;;;2.38;100.00
68193;BME280;55012;47.562;18.414;2023-01-31T00:52:25;99574.13;;;2.38;100.00
68193;BME280;55012;47.562;18.414;2023-01-31T00:54:50;99581.84;;;2.39;100.00
68193;BME280;55012;47.562;18.414;2023-01-31T00:57:16;99584.81;;;2.38;100.00
68193;BME280;55012;47.562;18.414;2023-01-31T00:59:41;99572.53;;;2.37;100.00
68193;BME280;55012;47.562;18.414;2023-01-31T01:02:06;99587.81;;;2.31;100.00
68193;BME280;55012;47.562;18.414;2023-01-31T01:04:32;99592.34;;;2.31;100.00
68193;BME280;55012;47.562;18.414;2023-01-31T01:06:57;99571.84;;;2.26;100.00
68193;BME280;55012;47.562;18.414;2023-01-31T01:09:23;99581.97;;;2.29;100.00
68193;BME280;55012;47.562;18.414;2023-01-31T01:11:50;99593.44;;;2.30;100.00
68193;BME280;55012;47.562;18.414;2023-01-31T01:14:15;99604.09;;;2.30;100.00
68193;BME280;55012;47.562;18.414;2023-01-31T01:16:41;99594.50;;;2.29;100.00
68193;BME280;55012;47.562;18.414;2023-01-31T01:19:10;99597.97;;;2.29;100.00
68193;BME280;55012;47.562;18.414;2023-01-31T01:21:36;99604.69;;;2.27;100.00
68193;BME280;55012;47.562;18.414;2023-01-31T01:24:12;99601.44;;;2.30;100.00
68193;BME280;55012;47.562;18.414;2023-01-31T01:26:38;99603.03;;;2.31;100.00
68193;BME280;55012;47.562;18.414;2023-01-31T01:29:03;99615.56;;;2.30;100.00
68193;BME280;55012;47.562;18.414;2023-01-31T01:31:29;99598.53;;;2.26;100.00
68193;BME280;55012;47.562;18.414;2023-01-31T01:33:57;99614.28;;;2.28;100.00
68193;BME280;55012;47.562;18.414;2023-01-31T01:36:23;99610.03;;;2.27;100.00
68193;BME280;55012;47.562;18.414;2023-01-31T01:38:50;99613.47;;;2.27;100.00
68193;BME280;55012;47.562;18.414;2023-01-31T01:41:17;99598.53;;;2.26;100.00
68193;BME280;55012;47.562;18.414;2023-01-31T01:46:10;99623.38;;;2.27;100.00
68193;BME280;55012;47.562;18.414;2023-01-31T01:48:36;99605.75;;;2.25;100.00
68193;BME280;55012;47.562;18.414;2023-01-31T01:51:04;99601.22;;;2.26;100.00
68193;BME280;55012;47.562;18.414;2023-01-31T01:53:34;99620.69;;;2.27;100.00
68193;BME280;55012;47.562;18.414;2023-01-31T01:56:08;99632.44;;;2.25;100.00
68193;BME280;55012;47.562;18.414;2023-01-31T01:58:50;99630.56;;;2.26;100.00
68193;BME280;55012;47.562;18.414;2023-01-31T02:01:18;99639.38;;;2.27;100.00
68193;BME280;55012;47.562;18.414;2023-01-31T02:03:44;99629.22;;;2.29;100.00
68193;BME280;55012;47.562;18.414;2023-01-31T02:06:11;99631.88;;;2.29;100.00
68193;BME280;55012;47.562;18.414;2023-01-31T02:08:39;99641.47;;;2.30;100.00
68193;BME280;55012;47.562;18.414;2023-01-31T02:11:27;99639.09;;;2.28;100.00
68193;BME280;55012;47.562;18.414;2023-01-31T02:14:04;99641.25;;;2.26;100.00
68193;BME280;55012;47.562;18.414;2023-01-31T02:16:30;99650.34;;;2.25;100.00
68193;BME280;55012;47.562;18.414;2023-01-31T02:18:56;99647.66;;;2.25;100.00
68193;BME280;55012;47.562;18.414;2023-01-31T02:24:48;99651.13;;;2.25;100.00
68193;BME280;55012;47.562;18.414;2023-01-31T02:44:12;99662.34;;;2.22;100.00
68193;BME280;55012;47.562;18.414;2023-01-31T02:47:02;99671.44;;;2.21;100.00
68193;BME280;55012;47.562;18.414;2023-01-31T02:49:47;99681.03;;;2.22;100.00
68193;BME280;55012;47.562;18.414;2023-01-31T02:55:11;99682.97;;;2.17;100.00
68193;BME280;55012;47.562;18.414;2023-01-31T02:57:59;99680.81;;;2.19;100.00
68193;BME280;55012;47.562;18.414;2023-01-31T03:00:26;99710.16;;;2.19;100.00
68193;BME280;55012;47.562;18.414;2023-01-31T03:02:53;99687.72;;;2.25;100.00
68193;BME280;55012;47.562;18.414;2023-01-31T03:05:19;99688.00;;;2.23;100.00
68193;BME280;55012;47.562;18.414;2023-01-31T03:08:03;99687.72;;;2.25;100.00
68193;BME280;55012;47.562;18.414;2023-01-31T03:15:34;99702.66;;;2.26;100.00
68193;BME280;55012;47.562;18.414;2023-01-31T03:21:21;99706.13;;;2.27;100.00
68193;BME280;55012;47.562;18.414;2023-01-31T03:23:52;99711.72;;;2.25;100.00
68193;BME280;55012;47.562;18.414;2023-01-31T03:26:20;99719.47;;;2.27;100.00
68193;BME280;55012;47.562;18.414;2023-01-31T03:28:46;99706.94;;;2.22;100.00
68193;BME280;55012;47.562;18.414;2023-01-31T03:31:25;99726.16;;;2.24;100.00
68193;BME280;55012;47.562;18.414;2023-01-31T03:33:57;99711.47;;;2.21;100.00
68193;BME280;55012;47.562;18.414;2023-01-31T03:36:51;99756.56;;;2.23;100.00
68193;BME280;55012;47.562;18.414;2023-01-31T03:39:41;99752.88;;;2.19;100.00
68193;BME280;55012;47.562;18.414;2023-01-31T03:44:54;99731.91;;;2.02;100.00
68193;BME280;55012;47.562;18.414;2023-01-31T03:47:26;99789.53;;;1.98;100.00
68193;BME280;55012;47.562;18.414;2023-01-31T03:49:55;99757.84;;;1.91;100.00
68193;BME280;55012;47.562;18.414;2023-01-31T03:52:35;99770.91;;;1.88;100.00
68193;BME280;55012;47.562;18.414;2023-01-31T03:55:08;99791.75;;;1.86;100.00
68193;BME280;55012;47.562;18.414;2023-01-31T03:57:37;99747.97;;;1.87;100.00
68193;BME280;55012;47.562;18.414;2023-01-31T04:00:08;99813.06;;;1.91;100.00
68193;BME280;55012;47.562;18.414;2023-01-31T04:02:37;99795.44;;;1.95;100.00
68193;BME280;55012;47.562;18.414;2023-01-31T04:05:12;99789.81;;;1.96;100.00
68193;BME280;55012;47.562;18.414;2023-01-31T04:07:39;99816.25;;;1.93;100.00
68193;BME280;55012;47.562;18.414;2023-01-31T04:10:10;99781.84;;;1.91;100.00
68193;BME280;55012;47.562;18.414;2023-01-31T04:12:37;99743.22;;;1.74;100.00
68193;BME280;55012;47.562;18.414;2023-01-31T04:15:04;99746.88;;;1.28;100.00
68193;BME280;55012;47.562;18.414;2023-01-31T04:17:30;99737.63;;;1.00;100.00
68193;BME280;55012;47.562;18.414;2023-01-31T04:19:57;99738.13;;;1.02;100.00
68193;BME280;55012;47.562;18.414;2023-01-31T04:22:23;99724.81;;;1.02;100.00
68193;BME280;55012;47.562;18.414;2023-01-31T04:24:48;99726.41;;;1.03;100.00
68193;BME280;55012;47.562;18.414;2023-01-31T04:27:14;99734.69;;;1.02;100.00
68193;BME280;55012;47.562;18.414;2023-01-31T04:29:39;99722.16;;;1.02;100.00
68193;BME280;55012;47.562;18.414;2023-01-31T04:32:05;99725.63;;;1.03;100.00
68193;BME280;55012;47.562;18.414;2023-01-31T04:34:30;99705.09;;;1.03;100.00
68193;BME280;55012;47.562;18.414;2023-01-31T04:36:56;99690.47;;;1.01;100.00
68193;BME280;55012;47.562;18.414;2023-01-31T04:39:21;99705.91;;;0.99;100.00
68193;BME280;55012;47.562;18.414;2023-01-31T04:41:47;99696.59;;;0.96;100.00
68193;BME280;55012;47.562;18.414;2023-01-31T04:44:12;99700.84;;;0.97;100.00
68193;BME280;55012;47.562;18.414;2023-01-31T04:46:38;99697.91;;;0.99;100.00
68193;BME280;55012;47.562;18.414;2023-01-31T04:49:04;99685.13;;;0.96;100.00
68193;BME280;55012;47.562;18.414;2023-01-31T04:51:29;99682.47;;;0.91;100.00
68193;BME280;55012;47.562;18.414;2023-01-31T04:53:55;99688.63;;;0.86;100.00
68193;BME280;55012;47.562;18.414;2023-01-31T04:56:20;99681.97;;;0.78;100.00
68193;BME280;55012;47.562;18.414;2023-01-31T04:58:46;99696.63;;;0.71;100.00
68193;BME280;55012;47.562;18.414;2023-01-31T05:01:12;99683.59;;;0.64;100.00
68193;BME280;55012;47.562;18.414;2023-01-31T05:03:38;99687.59;;;0.56;100.00
68193;BME280;55012;47.562;18.414;2023-01-31T05:06:04;99680.16;;;0.43;100.00
68193;BME280;55012;47.562;18.414;2023-01-31T05:08:30;99670.28;;;0.49;100.00
68193;BME280;55012;47.562;18.414;2023-01-31T05:10:57;99674.31;;;0.51;100.00
68193;BME280;55012;47.562;18.414;2023-01-31T05:13:23;99683.09;;;0.52;100.00
68193;BME280;55012;47.562;18.414;2023-01-31T05:15:49;99688.13;;;0.53;100.00
68193;BME280;55012;47.562;18.414;2023-01-31T05:18:15;99657.00;;;0.59;100.00
68193;BME280;55012;47.562;18.414;2023-01-31T05:20:40;99668.69;;;0.68;100.00
68193;BME280;55012;47.562;18.414;2023-01-31T05:23:06;99665.22;;;0.83;100.00
68193;BME280;55012;47.562;18.414;2023-01-31T05:25:34;99664.09;;;0.94;100.00
68193;BME280;55012;47.562;18.414;2023-01-31T05:28:00;99684.81;;;1.07;100.00
68193;BME280;55012;47.562;18.414;2023-01-31T05:30:25;99706.13;;;1.18;100.00
68193;BME280;55012;47.562;18.414;2023-01-31T05:32:51;99702.91;;;1.26;100.00
68193;BME280;55012;47.562;18.414;2023-01-31T05:35:17;99711.16;;;1.29;100.00
68193;BME280;55012;47.562;18.414;2023-01-31T05:37:43;99669.03;;;1.31;100.00
68193;BME280;55012;47.562;18.414;2023-01-31T05:40:15;99703.16;;;1.34;100.00
68193;BME280;55012;47.562;18.414;2023-01-31T05:42:41;99721.00;;;1.34;100.00
68193;BME280;55012;47.562;18.414;2023-01-31T05:45:08;99708.19;;;1.36;100.00
68193;BME280;55012;47.562;18.414;2023-01-31T05:47:34;99711.94;;;1.35;100.00
68193;BME280;55012;47.562;18.414;2023-01-31T05:49:59;99678.63;;;1.32;100.00
68193;BME280;55012;47.562;18.414;2023-01-31T05:52:25;99714.63;;;1.30;100.00
68193;BME280;55012;47.562;18.414;2023-01-31T05:54:50;99716.75;;;1.28;100.00
68193;BME280;55012;47.562;18.414;2023-01-31T05:57:16;99720.75;;;1.30;100.00
68193;BME280;55012;47.562;18.414;2023-01-31T05:59:41;99699.41;;;1.30;100.00
68193;BME280;55012;47.562;18.414;2023-01-31T06:02:07;99746.06;;;1.28;100.00
68193;BME280;55012;47.562;18.414;2023-01-31T06:04:33;99729.00;;;1.29;100.00
68193;BME280;55012;47.562;18.414;2023-01-31T06:06:59;99720.50;;;1.27;100.00
68193;BME280;55012;47.562;18.414;2023-01-31T06:09:24;99731.44;;;1.20;100.00
68193;BME280;55012;47.562;18.414;2023-01-31T06:11:50;99721.34;;;1.17;100.00
68193;BME280;55012;47.562;18.414;2023-01-31T06:14:15;99734.66;;;1.17;100.00
68193;BME280;55012;47.562;18.414;2023-01-31T06:16:41;99753.81;;;1.14;100.00
68193;BME280;55012;47.562;18.414;2023-01-31T06:19:06;99747.69;;;1.13;100.00
68193;BME280;55012;47.562;18.414;2023-01-31T06:21:32;99739.97;;;1.12;100.00
68193;BME280;55012;47.562;18.414;2023-01-31T06:23:57;99746.66;;;1.09;100.00
68193;BME280;55012;47.562;18.414;2023-01-31T06:26:23;99785.81;;;1.09;100.00
68193;BME280;55012;47.562;18.414;2023-01-31T06:28:48;99757.03;;;1.06;100.00
68193;BME280;55012;47.562;18.414;2023-01-31T06:31:14;99769.03;;;1.03;100.00
68193;BME280;55012;47.562;18.414;2023-01-31T06:33:40;99778.63;;;0.99;100.00
68193;BME280;55012;47.562;18.414;2023-01-31T06:36:06;99784.50;;;0.96;100.00
68193;BME280;55012;47.562;18.414;2023-01-31T06:38:32;99790.91;;;1.00;100.00
68193;BME280;55012;47.562;18.414;2023-01-31T06:40:57;99799.41;;;1.02;100.00
68193;BME280;55012;47.562;18.414;2023-01-31T06:43:22;99799.41;;;1.07;100.00
68193;BME280;55012;47.562;18.414;2023-01-31T06:45:48;99805.28;;;1.09;100.00
68193;BME280;55012;47.562;18.414;2023-01-31T06:48:14;99805.00;;;1.16;100.00
68193;BME280;55012;47.562;18.414;2023-01-31T06:50:40;99809.78;;;1.19;100.00
68193;BME280;55012;47.562;18.414;2023-01-31T06:53:06;99810.59;;;1.15;100.00
68193;BME280;55012;47.562;18.414;2023-01-31T06:55:31;99838.56;;;1.27;100.00
68193;BME280;55012;47.562;18.414;2023-01-31T06:57:57;99825.47;;;1.31;100.00
68193;BME280;55012;47.562;18.414;2023-01-31T07:00:22;99866.25;;;1.31;100.00
68193;BME280;55012;47.562;18.414;2023-01-31T07:02:52;99832.69;;;1.30;100.00
68193;BME280;55012;47.562;18.414;2023-01-31T07:05:19;99863.88;;;1.30;100.00
68193;BME280;55012;47.562;18.414;2023-01-31T07:07:45;99844.69;;;1.28;100.00
68193;BME280;55012;47.562;18.414;2023-01-31T07:10:12;99849.22;;;1.27;100.00
68193;BME280;55012;47.562;18.414;2023-01-31T07:12:38;99835.09;;;1.27;100.00
68193;BME280;55012;47.562;18.414;2023-01-31T07:15:05;99853.22;;;1.25;100.00
68193;BME280;55012;47.562;18.414;2023-01-31T07:17:30;99823.91;;;1.20;100.00
68193;BME280;55012;47.562;18.414;2023-01-31T07:19:57;99822.03;;;1.15;100.00
68193;BME280;55012;47.562;18.414;2023-01-31T07:22:23;99844.41;;;1.14;100.00
68193;BME280;55012;47.562;18.414;2023-01-31T07:24:48;99846.81;;;1.16;100.00
68193;BME280;55012;47.562;18.414;2023-01-31T07:27:14;99829.00;;;1.16;100.00
68193;BME280;55012;47.562;18.414;2023-01-31T07:29:40;99846.03;;;1.15;100.00
68193;BME280;55012;47.562;18.414;2023-01-31T07:32:05;99855.38;;;1.18;100.00
68193;BME280;55012;47.562;18.414;2023-01-31T07:34:31;99872.13;;;1.28;100.00
68193;BME280;55012;47.562;18.414;2023-01-31T07:36:56;99875.06;;;1.27;100.00
68193;BME280;55012;47.562;18.414;2023-01-31T07:39:22;99857.75;;;1.24;100.00
68193;BME280;55012;47.562;18.414;2023-01-31T07:41:48;99894.00;;;1.25;100.00
68193;BME280;55012;47.562;18.414;2023-01-31T07:44:13;99900.41;;;1.24;100.00
68193;BME280;55012;47.562;18.414;2023-01-31T07:46:39;99910.78;;;1.26;100.00
68193;BME280;55012;47.562;18.414;2023-01-31T07:49:05;99888.94;;;1.29;100.00
68193;BME280;55012;47.562;18.414;2023-01-31T07:51:30;99908.66;;;1.33;100.00
68193;BME280;55012;47.562;18.414;2023-01-31T07:53:56;99868.94;;;1.42;100.00
68193;BME280;55012;47.562;18.414;2023-01-31T07:56:21;99911.56;;;1.47;100.00
68193;BME280;55012;47.562;18.414;2023-01-31T07:58:48;99875.84;;;1.53;100.00
68193;BME280;55012;47.562;18.414;2023-01-31T08:01:22;99912.91;;;1.54;100.00
68193;BME280;55012;47.562;18.414;2023-01-31T08:04:09;99908.38;;;1.50;100.00
68193;BME280;55012;47.562;18.414;2023-01-31T08:06:35;99899.84;;;1.53;100.00
68193;BME280;55012;47.562;18.414;2023-01-31T08:09:01;99912.09;;;1.54;100.00
68193;BME280;55012;47.562;18.414;2023-01-31T08:11:27;99919.56;;;1.57;100.00
68193;BME280;55012;47.562;18.414;2023-01-31T08:13:55;99901.16;;;1.60;100.00
68193;BME280;55012;47.562;18.414;2023-01-31T08:16:21;99909.41;;;1.64;100.00
68193;BME280;55012;47.562;18.414;2023-01-31T08:18:47;99937.69;;;1.65;100.00
68193;BME280;55012;47.562;18.414;2023-01-31T08:21:14;99918.50;;;1.68;100.00
68193;BME280;55012;47.562;18.414;2023-01-31T08:23:40;99925.69;;;1.67;100.00
68193;BME280;55012;47.562;18.414;2023-01-31T08:26:16;99971.00;;;1.73;100.00
68193;BME280;55012;47.562;18.414;2023-01-31T08:28:44;99953.41;;;1.77;100.00
68193;BME280;55012;47.562;18.414;2023-01-31T08:31:15;99955.03;;;1.83;100.00
68193;BME280;55012;47.562;18.414;2023-01-31T08:33:40;99961.94;;;1.89;100.00
68193;BME280;55012;47.562;18.414;2023-01-31T08:36:18;99959.53;;;1.92;100.00
68193;BME280;55012;47.562;18.414;2023-01-31T08:38:43;99964.31;;;2.01;100.00
68193;BME280;55012;47.562;18.414;2023-01-31T08:41:12;100009.41;;;2.07;100.00
68193;BME280;55012;47.562;18.414;2023-01-31T08:43:38;99958.16;;;2.10;100.00
68193;BME280;55012;47.562;18.414;2023-01-31T08:46:04;99976.00;;;2.15;100.00
68193;BME280;55012;47.562;18.414;2023-01-31T08:48:34;100001.34;;;2.22;100.00
68193;BME280;55012;47.562;18.414;2023-01-31T08:51:01;99986.41;;;2.27;100.00
68193;BME280;55012;47.562;18.414;2023-01-31T08:53:27;99992.00;;;2.35;100.00
68193;BME280;55012;47.562;18.414;2023-01-31T08:56:00;99956.22;;;2.36;100.00
68193;BME280;55012;47.562;18.414;2023-01-31T08:58:26;100025.09;;;2.34;100.00
68193;BME280;55012;47.562;18.414;2023-01-31T09:00:52;100002.41;;;2.32;100.00
68193;BME280;55012;47.562;18.414;2023-01-31T09:03:17;99974.66;;;2.33;100.00
68193;BME280;55012;47.562;18.414;2023-01-31T09:05:43;100004.78;;;2.38;100.00
68193;BME280;55012;47.562;18.414;2023-01-31T09:08:09;100022.69;;;2.43;100.00
68193;BME280;55012;47.562;18.414;2023-01-31T09:10:35;100010.66;;;2.45;100.00
68193;BME280;55012;47.562;18.414;2023-01-31T09:13:01;100056.84;;;2.51;100.00
68193;BME280;55012;47.562;18.414;2023-01-31T09:15:26;99999.41;;;2.53;100.00
68193;BME280;55012;47.562;18.414;2023-01-31T09:17:52;100021.84;;;2.52;100.00
68193;BME280;55012;47.562;18.414;2023-01-31T09:20:18;100005.00;;;2.57;100.00
68193;BME280;55012;47.562;18.414;2023-01-31T09:22:43;100023.72;;;2.57;100.00
68193;BME280;55012;47.562;18.414;2023-01-31T09:25:09;100058.69;;;2.61;100.00
68193;BME280;55012;47.562;18.414;2023-01-31T09:27:36;100014.06;;;2.61;100.00
68193;BME280;55012;47.562;18.414;2023-01-31T09:30:07;100043.44;;;2.61;100.00
68193;BME280;55012;47.562;18.414;2023-01-31T09:32:34;100080.28;;;2.64;100.00
68193;BME280;55012;47.562;18.414;2023-01-31T09:35:00;100032.72;;;2.71;100.00
68193;BME280;55012;47.562;18.414;2023-01-31T09:37:28;100064.25;;;2.74;100.00
68193;BME280;55012;47.562;18.414;2023-01-31T09:39:54;100031.63;;;2.77;100.00
68193;BME280;55012;47.562;18.414;2023-01-31T09:44:59;100064.19;;;2.90;100.00
68193;BME280;55012;47.562;18.414;2023-01-31T09:47:33;100007.25;;;2.94;100.00
68193;BME280;55012;47.562;18.414;2023-01-31T09:50:05;100062.28;;;2.95;100.00
68193;BME280;55012;47.562;18.414;2023-01-31T09:52:31;100093.31;;;2.91;100.00
68193;BME280;55012;47.562;18.414;2023-01-31T09:54:58;100027.03;;;2.88;100.00
68193;BME280;55012;47.562;18.414;2023-01-31T09:58:03;100022.25;;;2.80;100.00
68193;BME280;55012;47.562;18.414;2023-01-31T10:00:56;100038.56;;;2.84;100.00
68193;BME280;55012;47.562;18.414;2023-01-31T10:03:47;100081.56;;;2.92;100.00
68193;BME280;55012;47.562;18.414;2023-01-31T10:06:23;100076.16;;;2.97;100.00
68193;BME280;55012;47.562;18.414;2023-01-31T10:09:00;100085.50;;;3.05;100.00
68193;BME280;55012;47.562;18.414;2023-01-31T10:11:33;100006.09;;;3.10;100.00
68193;BME280;55012;47.562;18.414;2023-01-31T10:14:35;100077.97;;;3.17;100.00
68193;BME280;55012;47.562;18.414;2023-01-31T10:17:21;100073.69;;;3.16;100.00
68193;BME280;55012;47.562;18.414;2023-01-31T10:19:58;100046.19;;;3.10;100.00
68193;BME280;55012;47.562;18.414;2023-01-31T10:22:38;100024.22;;;3.19;100.00
68193;BME280;55012;47.562;18.414;2023-01-31T10:27:49;100091.78;;;3.40;100.00
68193;BME280;55012;47.562;18.414;2023-01-31T10:31:01;100023.81;;;3.41;100.00
68193;BME280;55012;47.562;18.414;2023-01-31T10:36:02;100044.59;;;3.54;100.00
68193;BME280;55012;47.562;18.414;2023-01-31T10:38:33;100059.09;;;3.48;100.00
68193;BME280;55012;47.562;18.414;2023-01-31T10:41:13;100042.78;;;3.44;100.00
68193;BME280;55012;47.562;18.414;2023-01-31T10:44:02;100013.06;;;3.46;100.00
68193;BME280;55012;47.562;18.414;2023-01-31T10:46:30;100007.19;;;3.49;100.00
68193;BME280;55012;47.562;18.414;2023-01-31T10:48:55;100016.25;;;3.53;100.00
68193;BME280;55012;47.562;18.414;2023-01-31T10:51:31;100003.31;;;3.65;100.00
68193;BME280;55012;47.562;18.414;2023-01-31T10:57:14;100067.84;;;3.58;100.00
68193;BME280;55012;47.562;18.414;2023-01-31T10:59:42;100044.88;;;3.47;100.00
68193;BME280;55012;47.562;18.414;2023-01-31T11:02:20;100028.31;;;3.45;100.00
68193;BME280;55012;47.562;18.414;2023-01-31T11:04:49;100039.53;;;3.47;100.00
68193;BME280;55012;47.562;18.414;2023-01-31T11:07:15;100010.13;;;3.47;100.00
68193;BME280;55012;47.562;18.414;2023-01-31T11:09:47;99998.50;;;3.62;100.00
68193;BME280;55012;47.562;18.414;2023-01-31T11:12:13;100021.19;;;3.70;100.00
68193;BME280;55012;47.562;18.414;2023-01-31T11:14:38;100037.03;;;3.66;100.00
68193;BME280;55012;47.562;18.414;2023-01-31T11:17:15;100044.38;;;3.45;100.00
68193;BME280;55012;47.562;18.414;2023-01-31T11:19:52;100070.97;;;3.21;100.00
68193;BME280;55012;47.562;18.414;2023-01-31T11:22:29;100046.69;;;3.13;100.00
68193;BME280;55012;47.562;18.414;2023-01-31T11:24:57;99979.34;;;3.10;100.00
68193;BME280;55012;47.562;18.414;2023-01-31T11:27:38;99988.09;;;3.21;100.00
68193;BME280;55012;47.562;18.414;2023-01-31T11:30:06;99987.56;;;3.24;100.00
68193;BME280;55012;47.562;18.414;2023-01-31T11:32:43;100021.25;;;3.25;100.00
68193;BME280;55012;47.562;18.414;2023-01-31T11:37:49;99980.66;;;3.13;100.00
68193;BME280;55012;47.562;18.414;2023-01-31T11:42:54;99995.31;;;3.26;100.00
68193;BME280;55012;47.562;18.414;2023-01-31T11:45:22;99994.22;;;3.27;100.00
68193;BME280;55012;47.562;18.414;2023-01-31T11:47:50;100013.22;;;3.25;100.00
68193;BME280;55012;47.562;18.414;2023-01-31T11:50:31;99978.97;;;3.27;100.00
68193;BME280;55012;47.562;18.414;2023-01-31T11:52:59;100076.56;;;3.30;100.00
68193;BME280;55012;47.562;18.414;2023-01-31T11:55:27;100075.53;;;3.21;100.00
68193;BME280;55012;47.562;18.414;2023-01-31T11:58:00;99963.53;;;3.19;100.00
68193;BME280;55012;47.562;18.414;2023-01-31T12:00:30;99986.19;;;3.27;100.00
68193;BME280;55012;47.562;18.414;2023-01-31T12:03:05;100098.75;;;3.30;100.00
68193;BME280;55012;47.562;18.414;2023-01-31T12:05:43;100076.34;;;3.21;100.00
68193;BME280;55012;47.562;18.414;2023-01-31T12:08:34;100060.06;;;3.13;100.00
68193;BME280;55012;47.562;18.414;2023-01-31T12:13:49;100023.16;;;2.65;100.00
68193;BME280;55012;47.562;18.414;2023-01-31T12:16:25;100039.19;;;2.55;100.00
68193;BME280;55012;47.562;18.414;2023-01-31T12:24:13;99998.88;;;2.46;100.00
68193;BME280;55012;47.562;18.414;2023-01-31T12:26:47;100034.97;;;2.39;100.00
68193;BME280;55012;47.562;18.414;2023-01-31T12:46:08;100055.59;;;2.98;100.00
68193;BME280;55012;47.562;18.414;2023-01-31T12:51:35;100015.59;;;2.77;100.00
68193;BME280;55012;47.562;18.414;2023-01-31T13:00:00;100034.31;;;2.72;100.00
68193;BME280;55012;47.562;18.414;2023-01-31T13:02:57;100041.28;;;2.68;100.00
68193;BME280;55012;47.562;18.414;2023-01-31T13:05:27;100051.69;;;2.75;100.00
68193;BME280;55012;47.562;18.414;2023-01-31T13:08:25;100028.63;;;2.89;100.00
68193;BME280;55012;47.562;18.414;2023-01-31T13:11:14;100033.09;;;3.09;100.00
68193;BME280;55012;47.562;18.414;2023-01-31T13:13:53;100029.84;;;3.17;100.00
68193;BME280;55012;47.562;18.414;2023-01-31T13:16:41;100036.19;;;3.31;100.00
68193;BME280;55012;47.562;18.414;2023-01-31T13:19:22;100041.47;;;3.42;100.00
68193;BME280;55012;47.562;18.414;2023-01-31T13:21:53;100115.78;;;3.50;100.00
68193;BME280;55012;47.562;18.414;2023-01-31T13:24:25;100037.94;;;3.46;100.00
68193;BME280;55012;47.562;18.414;2023-01-31T13:26:57;100046.22;;;3.50;100.00
68193;BME280;55012;47.562;18.414;2023-01-31T13:29:32;100048.84;;;3.55;100.00
68193;BME280;55012;47.562;18.414;2023-01-31T13:32:02;100050.50;;;3.51;100.00
68193;BME280;55012;47.562;18.414;2023-01-31T13:34:38;100062.78;;;3.52;100.00
68193;BME280;55012;47.562;18.414;2023-01-31T13:37:12;100045.44;;;3.49;100.00
68193;BME280;55012;47.562;18.414;2023-01-31T13:39:41;100050.50;;;3.51;100.00
68193;BME280;55012;47.562;18.414;2023-01-31T13:42:13;100030.19;;;3.50;100.00
68193;BME280;55012;47.562;18.414;2023-01-31T13:44:40;100034.75;;;3.44;100.00
68193;BME280;55012;47.562;18.414;2023-01-31T13:47:26;100052.97;;;3.42;100.00
68193;BME280;55012;47.562;18.414;2023-01-31T13:50:00;100031.56;;;3.42;100.00
68193;BME280;55012;47.562;18.414;2023-01-31T13:55:00;100022.66;;;3.57;100.00
68193;BME280;55012;47.562;18.414;2023-01-31T13:57:33;100022.34;;;3.58;100.00
68193;BME280;55012;47.562;18.414;2023-01-31T14:03:06;100015.56;;;3.71;100.00
68193;BME280;55012;47.562;18.414;2023-01-31T14:13:44;100017.16;;;3.72;100.00
68193;BME280;55012;47.562;18.414;2023-01-31T14:16:34;100019.78;;;3.77;100.00
68193;BME280;55012;47.562;18.414;2023-01-31T14:19:02;100009.09;;;3.77;100.00
68193;BME280;55012;47.562;18.414;2023-01-31T14:23:53;100018.69;;;3.83;100.00
68193;BME280;55012;47.562;18.414;2023-01-31T14:26:52;100034.75;;;3.83;100.00
68193;BME280;55012;47.562;18.414;2023-01-31T14:29:23;100021.47;;;3.68;100.00
68193;BME280;55012;47.562;18.414;2023-01-31T14:31:51;100028.44;;;3.64;100.00
68193;BME280;55012;47.562;18.414;2023-01-31T14:34:28;100018.63;;;3.54;100.00
68193;BME280;55012;47.562;18.414;2023-01-31T14:39:34;100024.25;;;3.53;100.00
68193;BME280;55012;47.562;18.414;2023-01-31T14:44:51;100036.59;;;3.49;100.00
68193;BME280;55012;47.562;18.414;2023-01-31T14:58:04;100019.16;;;3.56;100.00
68193;BME280;55012;47.562;18.414;2023-01-31T15:00:34;100028.03;;;3.52;100.00